TAF Portugal - 12 Dec 2017 - 2347 UTC - RocketRoute WX - rrwx.com
LPFR 121700Z 1218/1318 01008KT CAVOK BECMG 1218/1220 33008KT BECMG 1221/1223 VRB03KT BECMG 1303/1305 04008KT BECMG 1310/1312 09010KT BECMG 1316/1318 02007KT LPPT 121700Z 1218/1324 32005KT 9999 FEW035 BECMG 1303/1306 VRB03KT BKN035 PROB30 1303/1309 5000 DZ BR BKN008 BECMG 1312/1314 12007KT BECMG 1317/1320 24007KT SCT010 BKN025 LPMA 121700Z 1218/1318 01015KT 9999 SCT015 TEMPO 1218/1318 01018G30KT 6000 -RA BKN012 FEW018TCU PROB30 TEMPO 1218/1318 01025G35KT LPPD 121700Z 1218/1318 VRB05KT 9999 FEW015 BKN030 TEMPO 1221/1309 BKN008 BECMG 1312/1315 33007KT LPPR 121700Z 1218/1318 23005KT 9999 FEW035 BECMG 1218/1220 13005KT BKN035 BECMG 1302/1304 16008KT PROB30 TEMPO 1302/1312 5000 DZ BR SCT004 BKN008 BECMG 1314/1317 18013KT SCT008 BKN018 LPPS 121700Z 1218/1324 03015KT 9999 SCT015 TEMPO 1218/1320 03020G30KT BKN012 FEW016TCU LPAZ 121700Z 1218/1324 03010KT 9999 SCT012 BKN030 TEMPO 1218/1318 BKN012 BECMG 1222/1224 33008KT LPST 121408Z 1215/1224 36010KT 9999 FEW020 PROB30 TEMPO 1215/1217 36012G22KT 8000 -SHRA BKN018 BECMG 1216/1218 36005KT

RocketRoute WX - rrwx.com weather for pilots